WEATHER DATA

YESTERDAY
Time Temp. Dewp. Hum. Wind dir Wind speed Wind gust Bar. 1h Prec. 24h Prec.
00:20 6.4 -0.7 60 270 0.8 1.4 1015.6 0.0000 0.0000
00:30 6.3 -0.8 60 254 0.8 1.4 1015.5 0.0000 0.0000
00:39 6.2 -0.9 60 270 0.8 1.1 1015.6 0.0000 0.0000
00:50 6.1 -0.9 60 259 0.8 1.1 1015.4 0.0000 0.0000
01:00 6.1 -0.9 60 259 0.8 1.9 1015.5 0.0000 0.0000
01:10 6.1 -0.7 61 270 0.8 1.4 1015.5 0.0000 0.0000
01:20 6 -0.8 61 270 0.8 1.4 1015.5 0.0000 0.0000
01:30 6 -0.8 61 270 0.8 1.4 1015.5 0.0000 0.0000
01:40 5.8 -1 61 260 0.8 1.4 1015.5 0.0000 0.0000
01:50 5.8 -1 61 270 1.1 1.9 1015.6 0.0000 0.0000
02:01 5.7 -0.9 62 256 1.1 1.9 1015.6 0.0000 0.0000
02:11 5.6 -1 62 260 1.1 1.9 1015.5 0.0000 0.0000
02:21 5.5 -1.1 62 260 1.1 2.2 1015.5 0.0000 0.0000
02:31 5.4 -1.1 62 270 0.8 1.9 1015.5 0.0000 0.0000
02:41 5.3 -1 63 270 0.8 1.4 1015.4 0.0000 0.0000
02:51 5.2 -1.1 63 270 0.8 1.4 1015.4 0.0000 0.0000
03:01 5.2 -1.1 63 270 0.8 1.4 1015.4 0.0000 0.0000
03:12 5.2 -1.1 63 259 0.8 1.4 1015.4 0.0000 0.0000
03:21 5.1 -1.2 63 270 0.8 1.4 1015.3 0.0000 0.0000
03:31 4.9 -1.2 64 258 0.8 1.4 1015.3 0.0000 0.0000
03:41 4.8 -1.3 64 257 0.8 1.4 1015.2 0.0000 0.0000
03:52 4.7 -1.3 64 257 1.1 1.9 1015.1 0.0000 0.0000
04:02 4.6 -1.4 64 259 0.8 1.4 1015.2 0.0000 0.0000
04:12 4.4 -1.6 64 270 0.8 1.4 1014.9 0.0000 0.0000
04:22 4.4 -1.4 65 270 0.8 1.4 1015 0.0000 0.0000
04:32 4.3 -1.5 65 270 0.8 1.4 1014.9 0.0000 0.0000
04:42 4.2 -1.6 65 270 0.8 1.9 1014.9 0.0000 0.0000
04:52 4 -1.7 65 270 0.8 1.4 1014.9 0.0000 0.0000
05:03 3.9 -1.8 65 270 0.8 1.9 1014.8 0.0000 0.0000
05:07 3.9 -1.6 66 270 0.8 1.4 1014.8 0.0000 0.0000
05:17 3.8 -1.7 66 259 0.8 1.4 1014.8 0.0000 0.0000
05:27 3.6 -1.9 66 260 0.8 1.4 1014.8 0.0000 0.0000
05:37 3.4 -2.1 66 270 0.8 1.4 1014.9 0.0000 0.0000
05:47 3.4 -1.9 67 270 0.8 1.4 1014.9 0.0000 0.0000
05:57 3.3 -2 67 270 1.1 1.4 1014.8 0.0000 0.0000
06:08 3.2 -2.1 67 270 0.8 1.9 1014.9 0.0000 0.0000
06:18 3.2 -2.1 67 270 0.8 1.4 1014.9 0.0000 0.0000
06:28 3.2 -2.1 67 270 1.1 1.4 1014.9 0.0000 0.0000
06:37 3.2 -2.1 67 262 1.1 2.2 1014.8 0.0000 0.0000
06:48 3.3 -2 67 270 1.1 2.2 1014.7 0.0000 0.0000
06:58 3.2 -2.1 67 270 1.1 1.9 1014.8 0.0000 0.0000
07:08 3.2 -2.1 67 270 0.8 1.4 1015 0.0000 0.0000
07:18 3.1 -2.1 67 270 0.8 1.4 1015 0.0000 0.0000
07:30 3.1 -2.1 67 270 1.1 1.9 1014.7 0.0000 0.0000
07:40 3 -2.2 67 270 0.8 1.4 1015.1 0.0000 0.0000
07:50 3 -2.2 67 270 0.8 1.9 1015.5 0.0000 0.0000
08:00 3 -2.2 67 262 1.1 2.2 1015.6 0.0000 0.0000
08:11 3.1 -2.1 67 262 1.1 1.9 1015.9 0.0000 0.0000
08:21 3.3 -2 67 270 1.1 1.9 1015.8 0.0000 0.0000
08:30 3.5 -1.8 67 270 1.1 1.9 1015.6 0.0000 0.0000
08:40 3.7 -1.6 67 270 1.1 2.2 1015.5 0.0000 0.0000
08:51 4 -1.4 67 258 1.1 1.9 1015.2 0.0000 0.0000
09:01 4.6 -1.1 66 259 1.4 2.5 1014.9 0.0000 0.0000
09:11 5.1 -0.6 66 270 1.1 1.9 1015 0.0000 0.0000
09:22 6 -0.3 64 261 1.4 2.5 1015 0.0000 0.0000
09:41 6.6 0.1 63 262 1.1 2.5 1014.8 0.0000 0.0000
09:51 6.9 -0.1 61 259 1.4 2.5 1014.8 0.0000 0.0000
10:02 6.7 -0.2 61 258 1.4 3.1 1014.8 0.0000 0.0000
10:12 7 0.2 62 258 0.8 1.4 1014.7 0.0000 0.0000
10:22 7.1 0.3 62 260 1.1 2.2 1014.7 0.0000 0.0000
10:32 7.3 0.3 61 261 1.1 2.5 1014.7 0.0000 0.0000
10:42 7.7 0.7 61 257 1.4 2.5 1014.5 0.0000 0.0000
10:52 8.6 1 59 257 1.1 2.5 1014.6 0.0000 0.0000
11:02 9.1 1.5 59 260 1.1 2.5 1014.6 0.0000 0.0000
11:13 9.2 1.4 58 255 1.4 3.1 1014.5 0.0000 0.0000
11:22 9.1 1.3 58 256 1.1 2.2 1014.4 0.0000 0.0000
11:32 10 2.1 58 258 1.1 2.5 1014.1 0.0000 0.0000
11:42 10.2 1.8 56 258 1.1 3.1 1013.9 0.0000 0.0000
11:53 10.1 1.7 56 255 1.1 3.1 1013.9 0.0000 0.0000
12:03 10.5 2.1 56 256 1.4 2.5 1013.8 0.0000 0.0000
12:13 10.5 2.1 56 254 1.4 3.1 1013.8 0.0000 0.0000
12:23 10.6 2.2 56 252 0.8 1.9 1013.7 0.0000 0.0000
12:33 10.7 2.3 56 257 1.1 2.2 1013.6 0.0000 0.0000
12:43 10.8 2.6 57 260 0.8 1.9 1013.5 0.0000 0.0000
12:53 11 2.6 56 254 1.1 2.2 1013.5 0.0000 0.0000
13:04 11.1 2.7 56 260 1.1 2.2 1013.3 0.0000 0.0000
13:13 11.4 2.9 56 258 1.1 2.2 1013.3 0.0000 0.0000
13:23 11.6 2.9 55 270 1.1 1.9 1012.9 0.0000 0.0000
13:34 11.9 3.2 55 259 1.1 1.9 1012.8 0.0000 0.0000
13:44 12.2 3.2 54 254 0.8 1.9 1012.7 0.0000 0.0000
13:54 12.5 3.2 53 250 1.1 2.2 1012.5 0.0000 0.0000
14:04 12.7 3.1 52 258 1.1 1.9 1012.3 0.0000 0.0000
14:14 12.9 3.3 52 256 1.1 1.9 1011.9 0.0000 0.0000
14:34 13.4 3.5 51 256 1.1 1.9 1011.7 0.0000 0.0000
14:44 13.6 3.7 51 255 1.1 3.1 1011.6 0.0000 0.0000
14:55 13.8 3.6 50 252 0.8 1.9 1011.4 0.0000 0.0000
15:04 13.8 3.3 49 250 1.1 1.9 1011.4 0.0000 0.0000
15:14 13.9 3.4 49 255 1.1 1.9 1011.2 0.0000 0.0000
15:25 13.9 3.9 51 254 1.1 1.9 1011.2 0.0000 0.0000
15:35 13.9 3.9 51 251 0.8 1.4 1011.3 0.0000 0.0000
15:45 13.8 4.1 52 255 0.8 1.9 1011.1 0.0000 0.0000
16:05 13.6 3.9 52 259 0.8 2.5 1011.2 0.0000 0.0000
16:15 13.4 4 53 260 0.8 1.4 1011.2 0.0000 0.0000
16:25 13.3 3.9 53 270 0.3 0.8 1011.1 0.0000 0.0000
16:36 13.1 4.3 55 270 0.3 1.1 1011.1 0.0000 0.0000
16:45 13 3.9 54 258 0.8 1.1 1010.8 0.0000 0.0000
16:55 12.9 3.3 52 225 0.8 1.9 1011 0.0000 0.0000
17:16 12.5 2.4 50 270 0.3 1.1 1011 0.0000 0.0000
17:26 12.3 2.5 51 270 0.3 1.9 1010.5 0.0000 0.0000
17:35 12 2.5 52 333 0.3 1.1 1010.5 0.0000 0.0000
17:46 11.8 2 51 270 0.8 1.4 1010.5 0.0000 0.0000
17:56 11.4 2.2 53 260 0.8 1.4 1010.5 0.0000 0.0000
18:06 11 2.1 54 270 0.8 1.4 1010.4 0.0000 0.0000
18:16 10.5 1.9 55 270 0.8 1.4 1010.5 0.0000 0.0000
18:27 10.3 1.9 56 270 0.3 1.1 1010.6 0.0000 0.0000
18:36 10.2 1.8 56 309 0.3 1.1 1010.7 0.0000 0.0000
18:46 9.9 1.8 57 310 0.3 0.8 1010.8 0.0000 0.0000
18:56 9.6 1.8 58 315 0.3 0.8 1011 0.0000 0.0000
19:07 9.4 1.8 59 270 0.3 1.1 1011 0.0000 0.0000
19:17 9.2 1.6 59 270 0.3 1.1 1011.2 0.0000 0.0000
19:26 9 1.4 59 315 0.3 1.1 1011.2 0.0000 0.0000
19:37 8.9 1.3 59 270 0.3 0.8 1011.2 0.0000 0.0000
19:47 8.9 1.3 59 270 0.3 1.1 1011.2 0.0000 0.0000
19:57 8.8 1.5 60 270 0.3 1.1 1011.2 0.0000 0.0000
20:12 8.4 1.1 60 270 0.3 0.8 1011.4 0.0000 0.0000
20:22 8.1 0.8 60 270 0.3 1.1 1011.3 0.0000 0.0000
20:32 7.9 0.6 60 270 0.3 1.1 1011.3 0.0000 0.0000
20:42 7.6 0.6 61 270 0.3 1.1 1011.4 0.0000 0.0000
20:52 7.4 0.4 61 270 0.3 1.1 1011.3 0.0000 0.0000
21:02 7.2 0.4 62 270 0.3 1.1 1011.3 0.0000 0.0000
21:12 7.1 0.3 62 270 0.3 1.1 1011.3 0.0000 0.0000
21:23 7.1 0.5 63 270 0.3 0.8 1011.3 0.0000 0.0000
21:33 7.2 0.4 62 302 0.3 1.1 1011.3 0.0000 0.0000
21:42 7.3 0.5 62 302 0.3 1.1 1011.5 0.0000 0.0000
21:52 7.2 0.6 63 270 0.3 1.1 1011.5 0.0000 0.0000
22:03 7.1 0.5 63 270 0.3 1.1 1011.4 0.0000 0.0000
22:13 7 0.4 63 303 0.3 0.8 1011.4 0.0000 0.0000
22:23 6.9 0.4 63 270 0.3 0.8 1011.4 0.0000 0.0000
22:33 6.7 0.2 63 270 0.3 1.1 1011.4 0.0000 0.0000
22:43 6.5 0 63 270 0.3 1.1 1011.4 0.0000 0.0000
22:53 6.4 0.1 64 270 0.3 1.1 1011.5 0.0000 0.0000
23:03 6.4 0.1 64 270 0.3 0.8 1011.4 0.0000 0.0000
23:14 6.5 0.2 64 270 0.3 0.8 1011.5 0.0000 0.0000
23:33 6.5 0.2 64 270 0.3 1.1 1011.5 0.0000 0.0000
23:44 6.4 0.1 64 315 0.3 0.8 1011.4 0.0000 0.0000
23:54 6.3 0 64 270 0.3 1.1 1011.3 0.0000 0.0000

DAY STATISTIC

2019-02-18
TEMPERATURE
AVERAGE
7.7
HIGH
13.9
15:14
LOW
3.0
07:40
PRESSURE
AVERAGE
1013.3
HIGH
1015.9
08:11
LOW
1010.4
18:06
DEWPOINT
AVERAGE
0.5
HIGH
4.3
16:36
LOW
-2.2
07:40
HUMIDITY
AVERAGE
60
HIGH
67
05:47
LOW
49
15:04
WIND SPEED
AVERAGE
0.8
HIGH
1.4
09:01
WIND GUST
AVERAGE
1.6
HIGH
3.1
10:02
WIND DIRECTION
PREVAILING
W
92.6%
N
0.0
NE
0.0
E
0.0
SE
0.0
S
0.0
SW
0.7
W
92.6
NW
6.6
PRECIPITATION
RAIN HOUR
0.0
RAIN DAY
0.0
TEMPERATURE (°C)
LOW
3.0
HIGH
13.9
AVERAGE
7.7
PRESSURE (hpa)
LOW
1010.4
HIGH
1015.9
AVERAGE
1013.3
DEVICE